首页
METAR-TAF:

METAR-TAF

机场 :

Monte Scuro, 意大利

纬度: 39-20N, 经度: 016-24E, 海拔: 1710米

当前天气观测

该预报发布于1小时和9分钟前的04:55 UTC
风速6节,风向东北
温度 2°C
湿度 9%
气压 1025 hPa
能见度10公里或以上
1500米以下无云,无积雨云

METAR: LIBQ 230455Z 04006KT CAVOK 02/M27 Q1025 RMK SKC MON LIB VAL NIL VIS MIN 9999

时间: 07:04 (06:04 UTC)


TAF: 丢失

超过4000个机场的气象观测和天气预报(METAR&TAF报告)。

可查询的气象台以黄色和红色小点在地图上表示。

将鼠标移到小点上方,可查看气象台名称。

然后点击查看天气观测和预报。

如需切换地图:点击带黑十字的绿色按钮放大地图;点击带横线的绿色按钮缩小地图;或者点击绿色箭头查看邻近地区的地图。


METAR-TAF: